Time;durP1;ratioP1;P1;durP2;ratioP2;P2;SDS_P1;SDS_P2;PMS_P1;PMS_P2;Temp;Humidity;BMP_temperature;BMP_pressure;BME280_temperature;BME280_humidity;BME280_pressure;Samples;Min_cycle;Max_cycle;Signal;HPM_P1;HPM_P2
2023/07/30 00:01:32;;;;;;;4.82;1.63;;;20.50;99.30;;;;;;5119911;28;20443;-88
2023/07/30 00:03:58;;;;;;;6.30;1.58;;;20.40;99.30;;;;;;5120173;28;20023;-89
2023/07/30 00:06:24;;;;;;;5.18;1.33;;;20.30;99.50;;;;;;5101654;28;20051;-89
2023/07/30 00:08:49;;;;;;;5.30;1.70;;;20.20;99.30;;;;;;5102127;28;20031;-90
2023/07/30 00:11:15;;;;;;;7.40;1.88;;;20.20;99.40;;;;;;5118900;28;20066;-89
2023/07/30 00:13:40;;;;;;;5.13;1.65;;;20.20;99.20;;;;;;5099306;28;20081;-90
2023/07/30 00:16:06;;;;;;;5.07;1.90;;;20.10;99.00;;;;;;5117323;28;20481;-90
2023/07/30 00:18:32;;;;;;;4.93;1.58;;;20.00;99.00;;;;;;5082527;28;20036;-89
2023/07/30 00:20:57;;;;;;;5.30;1.77;;;20.00;98.90;;;;;;5117688;28;20122;-90
2023/07/30 00:23:23;;;;;;;6.22;1.40;;;19.90;98.90;;;;;;5117459;28;20027;-90
2023/07/30 00:25:48;;;;;;;7.25;2.00;;;19.90;99.00;;;;;;5117460;28;20103;-88
2023/07/30 00:28:14;;;;;;;7.35;2.17;;;19.80;98.70;;;;;;5100746;28;20452;-90
2023/07/30 00:30:40;;;;;;;4.22;1.95;;;19.70;98.50;;;;;;5117370;28;20038;-90
2023/07/30 00:33:05;;;;;;;4.90;1.33;;;19.60;98.70;;;;;;5099103;28;20042;-91
2023/07/30 00:35:31;;;;;;;7.32;1.92;;;19.60;99.00;;;;;;5081662;28;20055;-89
2023/07/30 00:37:57;;;;;;;4.90;1.40;;;19.60;99.20;;;;;;5081551;28;20031;-89
2023/07/30 00:40:22;;;;;;;4.60;1.55;;;19.50;99.10;;;;;;5098844;28;20035;-89
2023/07/30 00:42:48;;;;;;;4.63;1.50;;;19.50;99.40;;;;;;5116835;28;20039;-90
2023/07/30 00:45:14;;;;;;;4.53;1.60;;;19.50;99.40;;;;;;5116976;28;20028;-90
2023/07/30 00:47:40;;;;;;;6.97;1.58;;;19.50;99.50;;;;;;5098506;28;20112;-89
2023/07/30 00:50:07;;;;;;;6.57;1.73;;;19.50;99.30;;;;;;5116631;28;20035;-89
2023/07/30 00:52:34;;;;;;;6.53;2.15;;;19.40;99.00;;;;;;5118173;28;20035;-90
2023/07/30 00:55:02;;;;;;;4.32;1.60;;;19.40;99.20;;;;;;5118124;28;20036;-90
2023/07/30 00:57:29;;;;;;;6.80;1.38;;;19.30;99.30;;;;;;5119755;28;20032;-90
2023/07/30 00:59:55;;;;;;;4.70;1.48;;;19.30;99.40;;;;;;5119077;28;20464;-90
2023/07/30 01:02:21;;;;;;;6.03;1.20;;;19.20;99.20;;;;;;5100355;28;20126;-89
2023/07/30 01:04:47;;;;;;;3.33;1.17;;;19.20;99.20;;;;;;5118590;28;20149;-90
2023/07/30 01:07:13;;;;;;;4.30;1.33;;;19.20;99.30;;;;;;5117344;28;20031;-91
2023/07/30 01:09:39;;;;;;;8.93;2.22;;;19.20;99.50;;;;;;5098308;28;20030;-91
2023/07/30 01:12:06;;;;;;;8.65;1.75;;;19.10;99.70;;;;;;5081262;28;20092;-90
2023/07/30 01:14:32;;;;;;;4.65;1.55;;;19.10;99.40;;;;;;5116649;28;20184;-91
2023/07/30 01:16:58;;;;;;;8.25;1.73;;;19.10;99.30;;;;;;5116048;28;20034;-90
2023/07/30 01:19:24;;;;;;;4.43;1.63;;;19.00;99.10;;;;;;5116432;28;20109;-88
2023/07/30 01:21:49;;;;;;;4.88;1.40;;;19.00;99.00;;;;;;5116528;28;20035;-89
2023/07/30 01:24:15;;;;;;;5.40;1.30;;;19.00;99.20;;;;;;5100851;28;20023;-89
2023/07/30 01:26:48;;;;;;;5.65;1.73;;;18.90;99.30;;;;;;5118204;28;20027;-90
2023/07/30 01:29:31;;;;;;;4.57;1.67;;;18.90;99.60;;;;;;5098386;28;20026;-90
2023/07/30 01:31:59;;;;;;;;;;;19.00;99.70;;;;;;5099254;28;20524;-89
2023/07/30 01:34:27;;;;;;;5.88;1.17;;;18.90;99.70;;;;;;5115771;28;19907;-90
2023/07/30 01:36:54;;;;;;;5.60;1.60;;;19.00;99.80;;;;;;5097959;28;20035;-89
2023/07/30 01:39:20;;;;;;;6.45;2.20;;;18.90;99.60;;;;;;5097914;28;20068;-90
2023/07/30 01:41:46;;;;;;;8.35;1.90;;;18.80;99.70;;;;;;5098001;28;20475;-89
2023/07/30 01:44:12;;;;;;;6.28;2.20;;;18.90;99.80;;;;;;5115837;28;20072;-91
2023/07/30 01:46:37;;;;;;;7.55;2.10;;;18.80;99.90;;;;;;5115396;28;20028;-91
2023/07/30 01:49:03;;;;;;;7.25;1.80;;;18.90;99.70;;;;;;5096876;28;20031;-90
2023/07/30 01:51:29;;;;;;;6.30;1.85;;;18.80;99.50;;;;;;5115436;28;20165;-91
2023/07/30 01:53:54;;;;;;;5.90;1.73;;;18.70;99.60;;;;;;5097246;28;20485;-89
2023/07/30 01:56:20;;;;;;;6.10;1.92;;;18.70;99.60;;;;;;5097861;28;20030;-89
2023/07/30 01:58:46;;;;;;;7.55;2.47;;;18.70;99.70;;;;;;5115351;28;20454;-89
2023/07/30 02:01:12;;;;;;;7.90;2.00;;;18.60;99.60;;;;;;5115145;28;20027;-88
2023/07/30 02:03:38;;;;;;;4.45;1.90;;;18.60;99.70;;;;;;5114887;28;20028;-89
2023/07/30 02:06:03;;;;;;;7.78;2.20;;;18.60;99.80;;;;;;5097297;28;20055;-91
2023/07/30 02:08:29;;;;;;;8.27;1.92;;;18.50;99.90;;;;;;5114814;28;20110;-89
2023/07/30 02:10:59;;;;;;;6.05;2.15;;;18.50;99.90;;;;;;5114884;28;20387;-89
2023/07/30 02:13:25;;;;;;;6.18;1.85;;;18.40;99.90;;;;;;5097022;28;20120;-88
2023/07/30 02:15:51;;;;;;;8.18;2.00;;;18.40;99.90;;;;;;5096565;28;20070;-91
2023/07/30 02:18:17;;;;;;;7.13;2.08;;;18.30;99.90;;;;;;5115301;28;20053;-89
2023/07/30 02:20:42;;;;;;;8.07;2.50;;;18.40;99.90;;;;;;5114868;28;20043;-88
2023/07/30 02:23:08;;;;;;;7.63;2.00;;;18.40;99.90;;;;;;5096560;28;20055;-89
2023/07/30 02:25:34;;;;;;;5.55;2.13;;;18.40;99.90;;;;;;5115323;28;20035;-88
2023/07/30 02:28:01;;;;;;;7.30;1.98;;;18.40;99.90;;;;;;5115190;28;20027;-88
2023/07/30 02:30:27;;;;;;;6.35;2.20;;;18.40;99.90;;;;;;5114709;28;20027;-88
2023/07/30 02:32:52;;;;;;;5.10;1.60;;;18.50;99.90;;;;;;5114700;28;20122;-89
2023/07/30 02:35:18;;;;;;;6.05;1.80;;;18.50;99.90;;;;;;5114779;28;20074;-86
2023/07/30 02:37:44;;;;;;;6.05;1.90;;;18.50;99.90;;;;;;5114597;28;20161;-88
2023/07/30 02:40:10;;;;;;;8.50;2.42;;;18.50;99.90;;;;;;5096527;28;20214;-88
2023/07/30 02:42:36;;;;;;;7.28;2.20;;;18.50;99.90;;;;;;5114648;28;20043;-87
2023/07/30 02:45:01;;;;;;;6.45;1.90;;;18.50;99.90;;;;;;5114692;28;20402;-89
2023/07/30 02:47:27;;;;;;;6.40;2.15;;;18.40;99.90;;;;;;5114233;28;20031;-89
2023/07/30 02:49:53;;;;;;;5.50;1.98;;;18.40;99.90;;;;;;5114292;28;20023;-87
2023/07/30 02:52:18;;;;;;;6.05;2.08;;;18.40;99.90;;;;;;5114000;28;20467;-88
2023/07/30 02:54:44;;;;;;;9.05;2.13;;;18.50;99.90;;;;;;5096001;28;20055;-87
2023/07/30 02:57:11;;;;;;;7.75;1.83;;;18.40;99.90;;;;;;5114712;28;20043;-89
2023/07/30 02:59:37;;;;;;;7.68;2.00;;;18.40;99.90;;;;;;5096571;28;20038;-90
2023/07/30 03:02:05;;;;;;;14.43;2.60;;;18.50;99.90;;;;;;5117835;28;20034;-88
2023/07/30 03:04:31;;;;;;;9.55;3.28;;;18.50;99.90;;;;;;5096817;28;20060;-89
2023/07/30 03:06:56;;;;;;;13.68;4.00;;;18.50;99.90;;;;;;5098529;28;20345;-89
2023/07/30 03:09:22;;;;;;;11.73;2.90;;;18.50;99.90;;;;;;5098243;28;20028;-89
2023/07/30 03:11:49;;;;;;;10.15;3.17;;;18.50;99.90;;;;;;5098633;28;20036;-87
2023/07/30 03:14:14;;;;;;;6.40;2.50;;;18.50;99.90;;;;;;5097682;28;20032;-89
2023/07/30 03:16:40;;;;;;;10.13;3.17;;;18.50;99.90;;;;;;5097874;28;20032;-89
2023/07/30 03:19:06;;;;;;;10.73;3.45;;;18.40;99.90;;;;;;5098150;28;20158;-88
2023/07/30 03:21:31;;;;;;;11.88;3.33;;;18.40;99.90;;;;;;5096806;28;20035;-89
2023/07/30 03:23:57;;;;;;;10.82;3.42;;;18.40;99.90;;;;;;5098167;28;20063;-88
2023/07/30 03:26:22;;;;;;;7.35;2.50;;;18.30;99.90;;;;;;5097571;28;20039;-87
2023/07/30 03:28:48;;;;;;;10.23;3.05;;;18.30;99.90;;;;;;5096612;28;20391;-87
2023/07/30 03:31:14;;;;;;;8.15;3.00;;;18.40;99.90;;;;;;5098853;28;20028;-90
2023/07/30 03:33:43;;;;;;;11.20;2.85;;;18.30;99.90;;;;;;5097717;28;20036;-88
2023/07/30 03:36:15;;;;;;;6.88;2.55;;;18.40;99.90;;;;;;5096836;28;20020;-88
2023/07/30 03:38:42;;;;;;;11.68;3.33;;;18.40;99.90;;;;;;5096304;28;20032;-88
2023/07/30 03:41:08;;;;;;;7.57;2.33;;;18.50;99.90;;;;;;5097619;28;20422;-87
2023/07/30 03:43:34;;;;;;;11.10;3.17;;;18.50;99.90;;;;;;5097771;28;20437;-87
2023/07/30 03:46:00;;;;;;;9.10;3.30;;;18.50;99.90;;;;;;5097522;28;20114;-87
2023/07/30 03:48:26;;;;;;;10.85;3.42;;;18.40;99.90;;;;;;5097011;28;20070;-88
2023/07/30 03:50:55;;;;;;;12.82;3.85;;;18.40;99.90;;;;;;5098215;28;20024;-87
2023/07/30 03:53:21;;;;;;;12.85;3.38;;;18.50;99.90;;;;;;5097187;28;20071;-87
2023/07/30 03:55:47;;;;;;;8.07;2.78;;;18.50;99.90;;;;;;5097783;28;20036;-88
2023/07/30 03:58:13;;;;;;;12.15;4.18;;;18.50;99.90;;;;;;5098070;28;20036;-89
2023/07/30 04:00:39;;;;;;;10.93;3.20;;;18.50;99.90;;;;;;5096920;28;20103;-89
2023/07/30 04:03:05;;;;;;;13.43;4.18;;;18.50;99.90;;;;;;5097036;28;20032;-88
2023/07/30 04:05:31;;;;;;;11.57;3.85;;;18.50;99.90;;;;;;5112858;28;20487;-88
2023/07/30 04:07:56;;;;;;;10.52;3.90;;;18.40;99.90;;;;;;5099102;28;20495;-87
2023/07/30 04:10:22;;;;;;;15.90;4.05;;;18.40;99.90;;;;;;5082784;28;20031;-88
2023/07/30 04:12:48;;;;;;;13.80;3.85;;;18.40;99.90;;;;;;5099238;28;20126;-88
2023/07/30 04:15:15;;;;;;;10.05;3.08;;;18.40;99.90;;;;;;5099536;28;20082;-88
2023/07/30 04:17:41;;;;;;;13.57;3.55;;;18.40;99.90;;;;;;5117214;28;20020;-87
2023/07/30 04:20:09;;;;;;;6.88;3.10;;;18.50;99.90;;;;;;5117653;28;20019;-85
2023/07/30 04:22:38;;;;;;;14.80;4.03;;;18.50;99.90;;;;;;5117436;28;20035;-87
2023/07/30 04:25:04;;;;;;;9.05;3.70;;;18.50;99.90;;;;;;5117608;28;20110;-88
2023/07/30 04:27:29;;;;;;;13.43;4.07;;;18.50;99.90;;;;;;5117505;28;20078;-88
2023/07/30 04:29:55;;;;;;;15.52;4.57;;;18.50;99.90;;;;;;5100047;28;20024;-87
2023/07/30 04:32:21;;;;;;;11.35;3.35;;;18.50;99.90;;;;;;5117732;28;20490;-86
2023/07/30 04:34:46;;;;;;;12.35;3.95;;;18.50;99.90;;;;;;5117845;28;20080;-88
2023/07/30 04:37:12;;;;;;;19.30;4.65;;;18.50;99.90;;;;;;5117280;28;20035;-87
2023/07/30 04:39:38;;;;;;;13.40;4.45;;;18.50;99.90;;;;;;5117352;28;20605;-88
2023/07/30 04:42:03;;;;;;;15.52;4.55;;;18.50;99.90;;;;;;5116860;28;20031;-87
2023/07/30 04:44:29;;;;;;;12.85;3.78;;;18.50;99.90;;;;;;5117039;28;20035;-88
2023/07/30 04:46:55;;;;;;;13.18;3.88;;;18.50;99.90;;;;;;5118301;28;20035;-86
2023/07/30 04:49:20;;;;;;;8.65;2.97;;;18.50;99.90;;;;;;5099121;28;20051;-87
2023/07/30 04:51:46;;;;;;;9.27;3.05;;;18.50;99.90;;;;;;5117361;28;20027;-87
2023/07/30 04:54:12;;;;;;;15.52;4.60;;;18.50;99.90;;;;;;5117558;28;20032;-87
2023/07/30 04:56:37;;;;;;;14.07;4.50;;;18.50;99.90;;;;;;5082904;28;20104;-89
2023/07/30 04:59:03;;;;;;;16.67;4.65;;;18.50;99.90;;;;;;5116883;28;20485;-88
2023/07/30 05:01:30;;;;;;;11.10;3.70;;;18.50;99.90;;;;;;5116754;28;20372;-87
2023/07/30 05:03:56;;;;;;;14.48;4.57;;;18.50;99.90;;;;;;5116294;28;20120;-86
2023/07/30 05:06:22;;;;;;;15.77;4.38;;;18.50;99.90;;;;;;5115907;28;20077;-87
2023/07/30 05:08:48;;;;;;;10.38;3.30;;;18.50;99.90;;;;;;5116285;28;20043;-88
2023/07/30 05:11:14;;;;;;;11.02;3.97;;;18.50;99.90;;;;;;5116091;28;20471;-88
2023/07/30 05:13:39;;;;;;;18.42;5.10;;;18.50;99.90;;;;;;5098670;28;20036;-87
2023/07/30 05:16:05;;;;;;;12.95;3.83;;;18.50;99.90;;;;;;5116410;28;20472;-87
2023/07/30 05:18:30;;;;;;;19.80;5.50;;;18.40;99.90;;;;;;5115862;28;20464;-87
2023/07/30 05:20:56;;;;;;;22.15;6.07;;;18.40;99.90;;;;;;5116807;28;20035;-88
2023/07/30 05:23:22;;;;;;;17.67;5.85;;;18.40;99.90;;;;;;5097781;28;20102;-88
2023/07/30 05:25:47;;;;;;;14.68;4.95;;;18.30;99.90;;;;;;5098168;28;20131;-87
2023/07/30 05:28:13;;;;;;;16.48;5.22;;;18.30;99.90;;;;;;5117441;28;20024;-88
2023/07/30 05:30:39;;;;;;;22.65;6.03;;;18.30;99.90;;;;;;5098895;28;20027;-87
2023/07/30 05:33:04;;;;;;;19.58;7.13;;;18.30;99.90;;;;;;5116569;28;20107;-87
2023/07/30 05:35:30;;;;;;;16.95;6.07;;;18.30;99.90;;;;;;5122858;28;20043;-87
2023/07/30 05:37:56;;;;;;;20.75;7.28;;;18.30;99.90;;;;;;5119330;28;20031;-89
2023/07/30 05:40:22;;;;;;;19.23;6.65;;;18.20;99.90;;;;;;5119927;28;20028;-87
2023/07/30 05:42:47;;;;;;;16.17;5.97;;;18.20;99.90;;;;;;5097976;28;20096;-88
2023/07/30 05:45:13;;;;;;;18.75;6.88;;;18.20;99.90;;;;;;5115702;28;20028;-87
2023/07/30 05:47:39;;;;;;;14.30;5.75;;;18.20;99.90;;;;;;5098210;28;20422;-88
2023/07/30 05:50:06;;;;;;;23.90;7.72;;;18.30;99.90;;;;;;5115880;28;20032;-89
2023/07/30 05:52:32;;;;;;;18.42;6.05;;;18.30;99.90;;;;;;5081125;28;20038;-87
2023/07/30 05:54:58;;;;;;;22.65;7.90;;;18.30;99.90;;;;;;5115759;28;20114;-88
2023/07/30 05:57:23;;;;;;;22.45;7.97;;;18.30;99.90;;;;;;5097017;28;20031;-87
2023/07/30 05:59:49;;;;;;;23.77;6.88;;;18.30;99.90;;;;;;5115048;28;20038;-88
2023/07/30 06:02:15;;;;;;;22.17;7.57;;;18.30;99.90;;;;;;5115464;28;20043;-88
2023/07/30 06:04:41;;;;;;;24.10;8.00;;;18.30;99.90;;;;;;5115435;28;20051;-87
2023/07/30 06:07:06;;;;;;;25.60;9.60;;;18.30;99.90;;;;;;5115653;28;20096;-88
2023/07/30 06:09:32;;;;;;;21.23;7.82;;;18.30;99.90;;;;;;5097866;28;20032;-88
2023/07/30 06:12:01;;;;;;;22.08;8.18;;;18.30;99.90;;;;;;5115345;28;20121;-87
2023/07/30 06:14:27;;;;;;;19.55;6.55;;;18.30;99.90;;;;;;5079943;28;20043;-88
2023/07/30 06:16:53;;;;;;;25.23;8.77;;;18.30;99.90;;;;;;5115537;28;20027;-89
2023/07/30 06:19:19;;;;;;;25.40;9.20;;;18.30;99.90;;;;;;5115215;28;20035;-88
2023/07/30 06:21:45;;;;;;;35.15;8.82;;;18.30;99.90;;;;;;5114988;28;20023;-87
2023/07/30 06:24:11;;;;;;;24.30;8.60;;;18.30;99.90;;;;;;5115110;28;20120;-87
2023/07/30 06:26:36;;;;;;;21.02;8.40;;;18.30;99.90;;;;;;5114528;28;20387;-88
2023/07/30 06:29:02;;;;;;;28.55;9.40;;;18.30;99.90;;;;;;5114904;28;20027;-88
2023/07/30 06:31:28;;;;;;;20.90;7.47;;;18.30;99.90;;;;;;5096337;28;20040;-87
2023/07/30 06:33:53;;;;;;;28.13;8.82;;;18.30;99.90;;;;;;5114667;28;20028;-87
2023/07/30 06:36:19;;;;;;;24.38;9.48;;;18.30;99.90;;;;;;5114299;28;20028;-88
2023/07/30 06:38:45;;;;;;;26.92;8.32;;;18.30;99.90;;;;;;5114361;28;20544;-87
2023/07/30 06:41:10;;;;;;;26.27;8.18;;;18.30;99.90;;;;;;5114987;28;20414;-88
2023/07/30 06:43:36;;;;;;;24.05;8.00;;;18.30;99.90;;;;;;5097888;28;20076;-86
2023/07/30 06:46:02;;;;;;;32.63;8.77;;;18.30;99.90;;;;;;5120176;28;20027;-85
2023/07/30 06:48:27;;;;;;;29.58;8.68;;;18.30;99.90;;;;;;5120777;28;20067;-84
2023/07/30 06:50:53;;;;;;;21.45;7.03;;;18.30;99.90;;;;;;5118757;28;20031;-84
2023/07/30 06:53:19;;;;;;;24.88;7.75;;;18.30;99.90;;;;;;5120181;28;20087;-85
2023/07/30 06:55:44;;;;;;;25.30;7.78;;;18.30;99.90;;;;;;5100291;28;20115;-85
2023/07/30 06:58:10;;;;;;;25.00;9.00;;;18.40;99.90;;;;;;5116880;28;20051;-85
2023/07/30 07:00:36;;;;;;;22.50;7.82;;;18.40;99.90;;;;;;5121219;28;20027;-84
2023/07/30 07:03:02;;;;;;;24.60;9.25;;;18.40;99.90;;;;;;5116936;28;20028;-86
2023/07/30 07:05:27;;;;;;;22.88;8.88;;;18.40;99.90;;;;;;5117312;28;20464;-85
2023/07/30 07:07:53;;;;;;;21.45;7.38;;;18.40;99.90;;;;;;5103148;28;20048;-84
2023/07/30 07:10:18;;;;;;;22.70;8.35;;;18.30;99.90;;;;;;5104829;28;20232;-86
2023/07/30 07:12:44;;;;;;;22.92;7.90;;;18.30;99.90;;;;;;5124108;28;20107;-85
2023/07/30 07:15:10;;;;;;;21.80;8.02;;;18.30;99.90;;;;;;5121866;28;20047;-85
2023/07/30 07:17:35;;;;;;;20.65;9.02;;;18.40;99.90;;;;;;5082942;28;20028;-86
2023/07/30 07:20:03;;;;;;;19.63;6.70;;;18.40;99.90;;;;;;5121778;28;20032;-84
2023/07/30 07:22:29;;;;;;;23.80;8.15;;;18.40;99.90;;;;;;5120895;28;20032;-84
2023/07/30 07:24:54;;;;;;;26.33;9.27;;;18.50;99.90;;;;;;5100472;28;20400;-86
2023/07/30 07:27:21;;;;;;;22.00;8.25;;;18.50;99.90;;;;;;5123841;28;20020;-86
2023/07/30 07:29:46;;;;;;;24.52;9.13;;;18.60;99.90;;;;;;5118428;28;20510;-85
2023/07/30 07:32:12;;;;;;;26.33;8.57;;;18.70;99.90;;;;;;5119626;28;20109;-87
2023/07/30 07:34:37;;;;;;;23.45;8.50;;;18.70;99.90;;;;;;5121818;28;20095;-85
2023/07/30 07:37:03;;;;;;;23.77;8.73;;;18.80;99.90;;;;;;5118498;28;20024;-86
2023/07/30 07:39:29;;;;;;;18.55;7.32;;;18.80;99.90;;;;;;5123651;28;20028;-83
2023/07/30 07:41:55;;;;;;;25.35;8.68;;;18.90;99.90;;;;;;5100836;28;20104;-88
2023/07/30 07:44:22;;;;;;;20.90;7.60;;;18.90;99.90;;;;;;5118433;28;20529;-86
2023/07/30 07:46:48;;;;;;;26.58;8.32;;;18.90;99.90;;;;;;5117491;28;20024;-87
2023/07/30 07:49:13;;;;;;;23.95;8.30;;;19.00;99.90;;;;;;5119241;28;20433;-83
2023/07/30 07:51:39;;;;;;;21.25;6.57;;;19.00;99.90;;;;;;5118931;28;20027;-84
2023/07/30 07:54:04;;;;;;;16.80;5.65;;;19.00;99.90;;;;;;5102147;28;20036;-83
2023/07/30 07:56:31;;;;;;;19.67;7.25;;;18.90;99.90;;;;;;5101012;28;20059;-85
2023/07/30 07:58:57;;;;;;;17.13;6.22;;;19.00;99.90;;;;;;5119190;28;20035;-85
2023/07/30 08:01:23;;;;;;;27.83;7.32;;;18.90;99.90;;;;;;5118681;28;20042;-84
2023/07/30 08:03:49;;;;;;;18.95;5.05;;;18.90;99.90;;;;;;5119771;28;20413;-85
2023/07/30 08:06:14;;;;;;;18.15;5.18;;;18.90;99.90;;;;;;5120800;28;20372;-86
2023/07/30 08:08:40;;;;;;;21.05;5.70;;;18.90;99.90;;;;;;5119956;28;20117;-85
2023/07/30 08:11:07;;;;;;;25.45;6.65;;;18.90;99.90;;;;;;5119484;28;20080;-85
2023/07/30 08:13:33;;;;;;;17.67;4.85;;;18.90;99.90;;;;;;5117686;28;20046;-86
2023/07/30 08:15:59;;;;;;;22.52;5.50;;;18.90;99.90;;;;;;5118864;28;20107;-86
2023/07/30 08:18:25;;;;;;;20.13;4.93;;;18.90;99.90;;;;;;5118331;28;20508;-83
2023/07/30 08:20:50;;;;;;;15.60;4.43;;;18.90;99.90;;;;;;5119210;28;20071;-86
2023/07/30 08:23:16;;;;;;;20.45;4.85;;;18.90;99.90;;;;;;5118150;28;20495;-85
2023/07/30 08:25:41;;;;;;;15.85;4.60;;;18.90;99.90;;;;;;5117278;28;20418;-84
2023/07/30 08:28:07;;;;;;;16.67;4.70;;;19.00;99.90;;;;;;5117804;28;20035;-85
2023/07/30 08:30:33;;;;;;;20.55;5.53;;;19.00;99.90;;;;;;5117604;28;20023;-85
2023/07/30 08:32:59;;;;;;;16.70;4.78;;;19.10;99.90;;;;;;5099708;28;20038;-86
2023/07/30 08:35:24;;;;;;;22.63;6.70;;;19.10;99.90;;;;;;5118014;28;20052;-84
2023/07/30 08:37:50;;;;;;;21.92;6.20;;;19.00;99.90;;;;;;5118846;28;20528;-82
2023/07/30 08:40:15;;;;;;;19.73;5.38;;;19.00;99.90;;;;;;5118617;28;20545;-85
2023/07/30 08:42:41;;;;;;;22.10;6.07;;;19.00;99.90;;;;;;5118321;28;20032;-87
2023/07/30 08:45:08;;;;;;;24.65;6.65;;;19.20;99.90;;;;;;5118513;28;20106;-85
2023/07/30 08:47:39;;;;;;;24.52;5.47;;;19.30;99.90;;;;;;5100966;28;20024;-84
2023/07/30 08:50:05;;;;;;;21.00;5.13;;;19.30;99.90;;;;;;5117769;28;20028;-85
2023/07/30 08:52:32;;;;;;;20.38;5.15;;;19.40;99.90;;;;;;5099474;28;20095;-86
2023/07/30 08:55:01;;;;;;;19.70;4.78;;;19.40;99.90;;;;;;5116731;28;20100;-84
2023/07/30 08:57:28;;;;;;;14.77;4.90;;;19.50;99.90;;;;;;5117150;28;20055;-86
2023/07/30 09:00:08;;;;;;;14.65;4.10;;;19.50;99.90;;;;;;5117354;28;20084;-85
2023/07/30 09:02:39;;;;;;;18.08;4.53;;;19.40;99.90;;;;;;5099447;28;20031;-85
2023/07/30 09:05:06;;;;;;;18.38;4.47;;;19.40;99.90;;;;;;5116164;28;20043;-87
2023/07/30 09:07:32;;;;;;;13.77;4.38;;;19.40;99.90;;;;;;5117032;28;20054;-85
2023/07/30 09:09:57;;;;;;;17.05;4.20;;;19.40;99.90;;;;;;5098606;28;20032;-85
2023/07/30 09:12:29;;;;;;;17.25;3.97;;;19.30;99.90;;;;;;5098726;28;20046;-85
2023/07/30 09:14:55;;;;;;;17.02;3.17;;;19.30;99.90;;;;;;5098877;28;20031;-86
2023/07/30 09:17:21;;;;;;;20.10;3.80;;;19.30;99.90;;;;;;5118350;28;20544;-86
2023/07/30 09:19:47;;;;;;;13.30;3.20;;;19.20;99.90;;;;;;5099120;28;20024;-85
2023/07/30 09:22:13;;;;;;;19.05;3.35;;;19.30;99.90;;;;;;5098892;28;20043;-86
2023/07/30 09:24:44;;;;;;;15.38;3.45;;;19.30;99.90;;;;;;5099668;28;20031;-86
2023/07/30 09:27:11;;;;;;;13.47;3.20;;;19.30;99.90;;;;;;5117857;28;20081;-86
2023/07/30 09:29:36;;;;;;;20.58;3.45;;;19.30;99.90;;;;;;5117406;28;20043;-87
2023/07/30 09:32:02;;;;;;;17.40;3.15;;;19.30;99.90;;;;;;5099736;28;20028;-84
2023/07/30 09:34:30;;;;;;;16.63;3.10;;;19.50;99.90;;;;;;5117320;28;20391;-86
2023/07/30 09:36:55;;;;;;;15.32;2.60;;;19.50;99.90;;;;;;5116610;28;20032;-86
2023/07/30 09:39:25;;;;;;;15.82;3.38;;;19.60;99.90;;;;;;5098113;28;20076;-86
2023/07/30 09:41:51;;;;;;;19.73;3.30;;;19.80;99.90;;;;;;5116324;28;20027;-85
2023/07/30 09:44:21;;;;;;;12.35;2.67;;;19.90;99.90;;;;;;5116204;28;20065;-85
2023/07/30 09:46:48;;;;;;;15.52;3.20;;;20.10;99.90;;;;;;5099204;28;20527;-87
2023/07/30 09:49:15;;;;;;;15.52;2.47;;;20.20;99.90;;;;;;5119097;28;20128;-86
2023/07/30 09:51:40;;;;;;;14.10;3.05;;;20.30;99.90;;;;;;5118086;28;20024;-85
2023/07/30 09:54:13;;;;;;;17.48;3.13;;;20.40;99.90;;;;;;5117626;28;20099;-82
2023/07/30 09:56:40;;;;;;;12.32;2.20;;;20.50;99.80;;;;;;5117125;28;20032;-87
2023/07/30 09:59:07;;;;;;;15.30;2.80;;;20.50;99.70;;;;;;5116947;28;20019;-85
2023/07/30 10:01:38;;;;;;;10.60;2.03;;;20.60;99.60;;;;;;5115691;28;20055;-84
2023/07/30 10:04:08;;;;;;;8.88;1.83;;;20.60;99.10;;;;;;5116157;28;20035;-85
2023/07/30 10:06:50;;;;;;;10.55;2.28;;;20.50;98.40;;;;;;5116067;28;20036;-85
2023/07/30 10:09:19;;;;;;;20.63;3.80;;;20.40;98.80;;;;;;5115124;28;20024;-86
2023/07/30 10:11:46;;;;;;;14.82;2.10;;;20.30;98.90;;;;;;5115268;28;20035;-85
2023/07/30 10:14:14;;;;;;;11.25;2.47;;;20.20;99.40;;;;;;5115633;28;20028;-85
2023/07/30 10:16:49;;;;;;;14.98;2.20;;;20.10;99.70;;;;;;5116911;28;20107;-85
2023/07/30 10:19:16;;;;;;;12.77;2.30;;;19.90;99.60;;;;;;5115951;28;20024;-88
2023/07/30 10:21:42;;;;;;;11.20;1.80;;;19.80;99.90;;;;;;5115787;28;20043;-86
2023/07/30 10:24:09;;;;;;;14.20;1.83;;;19.60;99.90;;;;;;5116849;28;20111;-86
2023/07/30 10:26:37;;;;;;;10.00;1.75;;;19.50;99.90;;;;;;5097900;28;20032;-85
2023/07/30 10:29:19;;;;;;;11.05;1.60;;;19.50;99.90;;;;;;5097784;28;20024;-86
2023/07/30 10:31:54;;;;;;;10.65;1.40;;;19.50;99.60;;;;;;5097514;28;20067;-87
2023/07/30 10:34:20;;;;;;;11.05;1.15;;;19.40;99.40;;;;;;5115870;28;20048;-85
2023/07/30 10:36:50;;;;;;;6.78;1.10;;;19.40;98.90;;;;;;5114460;28;20030;-85
2023/07/30 10:39:19;;;;;;;9.50;1.85;;;19.50;98.60;;;;;;5114273;28;20024;-85
2023/07/30 10:41:46;;;;;;;10.85;1.85;;;19.60;98.70;;;;;;5097277;28;20030;-86
2023/07/30 10:44:21;;;;;;;9.52;1.95;;;19.70;98.90;;;;;;5115292;28;20048;-86
2023/07/30 10:46:47;;;;;;;10.05;1.50;;;19.70;99.10;;;;;;5114673;28;20024;-87
2023/07/30 10:49:12;;;;;;;8.52;1.23;;;19.80;99.20;;;;;;5114832;28;20035;-84
2023/07/30 10:51:39;;;;;;;7.55;1.77;;;19.90;99.20;;;;;;5096475;28;20023;-86
2023/07/30 10:54:07;;;;;;;9.57;2.05;;;20.00;99.20;;;;;;5096945;28;20106;-87
2023/07/30 10:56:36;;;;;;;10.38;1.45;;;20.10;99.10;;;;;;5115532;28;20106;-85
2023/07/30 10:59:05;;;;;;;6.35;0.88;;;20.20;98.60;;;;;;5096556;28;20478;-87
2023/07/30 11:01:31;;;;;;;7.50;1.33;;;20.30;98.10;;;;;;5115730;28;20028;-85
2023/07/30 11:03:57;;;;;;;4.57;0.70;;;20.40;98.00;;;;;;5114358;28;20080;-87
2023/07/30 11:06:24;;;;;;;5.97;1.00;;;20.60;98.20;;;;;;5080084;28;20047;-84
2023/07/30 11:08:49;;;;;;;9.80;2.20;;;20.70;98.30;;;;;;5115454;28;20050;-87
2023/07/30 11:11:15;;;;;;;11.50;1.60;;;20.70;98.00;;;;;;5114623;28;20460;-85
2023/07/30 11:13:47;;;;;;;8.35;1.08;;;20.80;98.20;;;;;;5114644;28;20114;-87
2023/07/30 11:16:15;;;;;;;7.57;1.40;;;20.80;98.30;;;;;;5115564;28;20028;-84
2023/07/30 11:18:42;;;;;;;4.25;0.95;;;20.80;97.80;;;;;;5114688;28;20049;-85
2023/07/30 11:21:09;;;;;;;7.70;1.23;;;20.70;97.60;;;;;;5115300;28;20081;-86
2023/07/30 11:23:36;;;;;;;9.43;1.85;;;20.60;97.40;;;;;;5118561;28;20028;-86
2023/07/30 11:26:03;;;;;;;9.25;1.20;;;20.60;97.50;;;;;;5118971;28;20024;-87
2023/07/30 11:28:33;;;;;;;7.30;1.58;;;20.60;97.80;;;;;;5118842;28;20425;-86
2023/07/30 11:31:00;;;;;;;7.80;0.82;;;20.70;98.20;;;;;;5101276;28;20460;-87
2023/07/30 11:33:27;;;;;;;12.18;1.60;;;20.70;97.90;;;;;;5083634;28;20035;-86
2023/07/30 11:35:55;;;;;;;6.60;1.00;;;20.80;98.00;;;;;;5100159;28;20031;-86
2023/07/30 11:38:22;;;;;;;5.18;0.95;;;21.00;97.80;;;;;;5100609;28;20471;-85
2023/07/30 11:40:48;;;;;;;5.22;1.25;;;21.30;96.70;;;;;;5117937;28;20114;-85
2023/07/30 11:43:14;;;;;;;7.47;0.88;;;21.40;96.20;;;;;;5100396;28;20349;-86
2023/07/30 11:45:40;;;;;;;5.97;0.90;;;21.50;96.40;;;;;;5118621;28;20035;-86
2023/07/30 11:48:10;;;;;;;5.30;0.90;;;21.60;96.00;;;;;;5100680;28;20039;-85
2023/07/30 11:50:44;;;;;;;7.32;0.73;;;21.60;95.20;;;;;;5118965;28;20107;-84
2023/07/30 11:53:10;;;;;;;5.22;0.90;;;21.50;93.60;;;;;;5118897;28;20058;-85
2023/07/30 11:55:40;;;;;;;9.07;0.95;;;21.40;94.10;;;;;;5099940;28;20032;-84
2023/07/30 11:58:09;;;;;;;6.80;1.17;;;21.30;94.30;;;;;;5118203;28;20028;-87
2023/07/30 12:00:37;;;;;;;10.02;1.20;;;21.20;94.80;;;;;;5118203;28;20036;-87
2023/07/30 12:03:04;;;;;;;6.20;0.80;;;21.20;94.90;;;;;;5117969;28;20088;-88
2023/07/30 12:05:35;;;;;;;6.13;1.17;;;21.20;95.30;;;;;;5100051;28;20079;-88
2023/07/30 12:08:03;;;;;;;9.75;0.98;;;21.10;95.00;;;;;;5118599;28;20114;-87
2023/07/30 12:10:42;;;;;;;6.80;0.73;;;21.10;95.10;;;;;;5099474;28;20070;-84
2023/07/30 12:13:26;;;;;;;7.00;0.70;;;21.10;96.00;;;;;;5117646;28;20027;-85
2023/07/30 12:15:55;;;;;;;6.53;0.80;;;21.30;96.10;;;;;;5118064;28;20028;-83
2023/07/30 12:18:23;;;;;;;11.13;1.20;;;21.50;95.40;;;;;;5117270;28;20047;-86
2023/07/30 12:20:50;;;;;;;3.88;0.40;;;21.60;95.10;;;;;;5099499;28;20026;-86
2023/07/30 12:23:19;;;;;;;3.08;0.50;;;21.60;94.50;;;;;;5099241;28;20032;-86
2023/07/30 12:25:45;;;;;;;4.50;0.70;;;21.50;93.50;;;;;;5117429;28;20391;-87
2023/07/30 12:28:11;;;;;;;5.18;0.80;;;21.50;93.50;;;;;;5117702;28;20038;-86
2023/07/30 12:30:36;;;;;;;9.05;0.80;;;21.50;93.60;;;;;;5099457;28;20027;-88
2023/07/30 12:33:05;;;;;;;7.90;1.02;;;21.40;94.00;;;;;;5098900;28;20032;-88
2023/07/30 12:35:32;;;;;;;6.78;1.10;;;21.30;94.40;;;;;;5099048;28;20035;-87
2023/07/30 12:37:59;;;;;;;7.80;0.98;;;21.20;94.80;;;;;;5118043;28;20439;-88